createdAt,value
2018-07-24T00:02:21.324Z,62.21
2018-07-24T00:04:50.886Z,63.14
2018-07-24T00:07:20.676Z,63.31
2018-07-24T00:09:50.796Z,62.44
2018-07-24T00:12:20.643Z,62.37
2018-07-24T00:14:50.617Z,62.52
2018-07-24T00:17:20.169Z,62.20
2018-07-24T00:19:50.004Z,61.76
2018-07-24T00:22:19.965Z,61.87
2018-07-24T00:24:49.864Z,61.54
2018-07-24T00:27:19.779Z,62.15
2018-07-24T00:29:49.208Z,62.09
2018-07-24T00:32:19.109Z,62.18
2018-07-24T00:34:48.537Z,61.84
2018-07-24T00:37:18.701Z,61.89
2018-07-24T00:39:48.710Z,60.90
2018-07-24T00:42:18.569Z,61.49
2018-07-24T00:44:48.471Z,61.66
2018-07-24T00:47:18.132Z,61.61
2018-07-24T00:49:47.918Z,62.00
2018-07-24T00:52:18.031Z,61.32
2018-07-24T00:54:48.165Z,61.39
2018-07-24T00:57:18.348Z,61.92
2018-07-24T00:59:49.451Z,62.04
2018-07-24T01:02:19.351Z,62.14
2018-07-24T01:04:49.334Z,62.35
2018-07-24T01:07:18.733Z,61.48
2018-07-24T01:09:48.790Z,62.28
2018-07-24T01:12:18.597Z,62.32
2018-07-24T01:14:48.377Z,61.60
2018-07-24T01:17:18.261Z,61.55
2018-07-24T01:19:48.051Z,62.46
2018-07-24T01:22:17.931Z,62.58
2018-07-24T01:24:47.444Z,62.00
2018-07-24T01:27:17.349Z,62.94
2018-07-24T01:29:47.598Z,62.31
2018-07-24T01:32:17.755Z,63.01
2018-07-24T01:34:47.705Z,62.12
2018-07-24T01:37:17.229Z,62.05
2018-07-24T01:39:47.348Z,62.90
2018-07-24T01:42:17.645Z,62.71
2018-07-24T01:44:47.715Z,63.10
2018-07-24T01:47:17.778Z,63.17
2018-07-24T01:49:47.569Z,62.41
2018-07-24T01:52:17.366Z,63.36
2018-07-24T01:54:47.436Z,63.43
2018-07-24T01:57:16.821Z,62.91
2018-07-24T01:59:46.754Z,63.24
2018-07-24T02:02:17.363Z,63.73
2018-07-24T02:04:47.645Z,63.31
2018-07-24T02:07:17.617Z,62.79
2018-07-24T02:09:47.552Z,63.68
2018-07-24T02:12:18.000Z,63.33
2018-07-24T02:14:47.809Z,64.93
2018-07-24T02:17:18.119Z,64.80
2018-07-24T02:19:47.595Z,64.34
2018-07-24T02:22:17.643Z,64.13
2018-07-24T02:24:47.579Z,64.37
2018-07-24T02:27:17.478Z,64.83
2018-07-24T02:29:47.542Z,65.57
2018-07-24T02:32:17.511Z,64.81
2018-07-24T02:34:47.366Z,65.42
2018-07-24T02:37:17.455Z,65.02
2018-07-24T02:39:47.429Z,65.33
2018-07-24T02:42:17.453Z,65.30
2018-07-24T02:44:47.364Z,65.82
2018-07-24T02:47:17.484Z,65.52
2018-07-24T02:49:47.352Z,65.53
2018-07-24T02:52:17.655Z,66.80
2018-07-24T02:54:47.482Z,66.61
2018-07-24T02:57:17.695Z,66.57
2018-07-24T02:59:48.013Z,67.51
2018-07-24T03:02:17.943Z,67.11
2018-07-24T03:04:47.980Z,67.85
2018-07-24T03:07:17.773Z,67.41
2018-07-24T03:09:47.613Z,67.67
2018-07-24T03:12:17.569Z,67.56
2018-07-24T03:14:47.557Z,67.86
2018-07-24T03:17:17.663Z,67.30
2018-07-24T03:19:47.466Z,68.43
2018-07-24T03:22:18.056Z,67.36
2018-07-24T03:24:47.506Z,67.22
2018-07-24T03:27:17.345Z,67.46
2018-07-24T03:29:47.244Z,68.50
2018-07-24T03:32:17.070Z,68.33
2018-07-24T03:34:46.986Z,68.54
2018-07-24T03:37:16.947Z,68.26
2018-07-24T03:39:46.834Z,67.88
2018-07-24T03:42:17.260Z,67.50
2018-07-24T03:44:47.232Z,68.32
2018-07-24T03:47:17.321Z,68.04
2018-07-24T03:49:46.896Z,67.70
2018-07-24T03:52:16.653Z,67.88
2018-07-24T03:54:46.555Z,67.64
2018-07-24T03:57:16.459Z,67.11
2018-07-24T03:59:46.533Z,67.77
2018-07-24T04:02:16.723Z,67.68
2018-07-24T04:04:46.576Z,67.86
2018-07-24T04:07:16.641Z,67.25
2018-07-24T04:09:46.702Z,67.51
2018-07-24T04:12:17.145Z,68.14
2018-07-24T04:14:47.228Z,66.75
2018-07-24T04:17:17.221Z,67.47
2018-07-24T04:19:47.115Z,67.29
2018-07-24T04:22:16.977Z,67.10
2018-07-24T04:24:47.012Z,67.40
2018-07-24T04:27:16.966Z,67.19
2018-07-24T04:29:47.055Z,66.91
2018-07-24T04:32:16.864Z,67.52
2018-07-24T04:35:05.212Z,67.22
2018-07-24T04:37:37.205Z,66.57
2018-07-24T04:40:07.341Z,66.56
2018-07-24T04:42:37.255Z,65.81
2018-07-24T04:45:07.741Z,65.99
2018-07-24T04:47:37.688Z,65.59
2018-07-24T04:50:07.740Z,65.02
2018-07-24T04:52:37.583Z,64.86
2018-07-24T04:55:07.956Z,64.42
2018-07-24T04:57:37.913Z,65.28
2018-07-24T05:00:08.028Z,64.07
2018-07-24T05:02:37.983Z,64.66
2018-07-24T05:05:08.063Z,63.81
2018-07-24T05:07:37.913Z,63.84
2018-07-24T05:10:07.829Z,63.20
2018-07-24T05:12:37.751Z,62.13
2018-07-24T05:15:11.621Z,62.39
2018-07-24T05:17:42.376Z,61.91
2018-07-24T05:20:12.408Z,61.31
2018-07-24T05:22:43.638Z,60.77
2018-07-24T05:25:19.496Z,59.26
2018-07-24T05:27:49.600Z,58.62
2018-07-24T05:30:19.526Z,58.71
2018-07-24T05:32:49.737Z,57.52
2018-07-24T05:35:19.925Z,58.35
2018-07-24T05:37:49.988Z,57.53
2018-07-24T05:40:19.831Z,56.67
2018-07-24T05:42:50.101Z,56.98
2018-07-24T05:45:20.062Z,56.80
2018-07-24T05:47:50.105Z,56.46
2018-07-24T05:50:20.194Z,55.73
2018-07-24T05:52:50.328Z,55.77
2018-07-24T05:55:20.144Z,55.88
2018-07-24T05:57:50.289Z,54.94
2018-07-24T06:00:20.426Z,54.65
2018-07-24T06:02:50.363Z,55.09
2018-07-24T06:05:20.357Z,54.04
2018-07-24T06:07:50.391Z,54.44
2018-07-24T06:10:21.300Z,53.90
2018-07-24T06:12:50.756Z,54.15
2018-07-24T06:15:20.958Z,54.49
2018-07-24T06:17:51.008Z,53.95
2018-07-24T06:20:21.099Z,53.58
2018-07-24T06:22:51.449Z,54.03
2018-07-24T06:25:21.523Z,52.93
2018-07-24T06:27:51.568Z,53.65
2018-07-24T06:30:21.691Z,52.79
2018-07-24T06:32:51.664Z,52.74
2018-07-24T06:35:21.377Z,52.69
2018-07-24T06:37:51.503Z,51.87
2018-07-24T06:40:21.282Z,52.82
2018-07-24T06:42:51.014Z,52.32
2018-07-24T06:45:21.021Z,51.98
2018-07-24T06:47:50.952Z,51.60
2018-07-24T06:50:20.560Z,52.65
2018-07-24T06:52:50.559Z,52.10
2018-07-24T06:55:20.492Z,51.97
2018-07-24T06:57:50.298Z,51.60
2018-07-24T07:00:19.763Z,49.39
2018-07-24T07:02:49.742Z,49.83
2018-07-24T07:05:19.619Z,49.82
2018-07-24T07:07:49.651Z,49.77
2018-07-24T07:10:19.196Z,50.34
2018-07-24T07:12:49.294Z,49.29
2018-07-24T07:15:19.120Z,50.29
2018-07-24T07:17:49.125Z,49.08
2018-07-24T07:20:18.735Z,48.98
2018-07-24T07:22:48.224Z,49.18
2018-07-24T07:25:17.688Z,49.07
2018-07-24T07:27:48.163Z,48.72
2018-07-24T07:30:17.978Z,49.42
2018-07-24T07:32:47.723Z,49.79
2018-07-24T07:35:17.562Z,49.17
2018-07-24T07:37:47.482Z,48.48
2018-07-24T07:40:17.312Z,48.50
2018-07-24T07:42:47.142Z,47.39
2018-07-24T07:45:17.071Z,47.53
2018-07-24T07:47:46.970Z,48.16
2018-07-24T07:50:16.720Z,47.01
2018-07-24T07:52:46.532Z,47.04
2018-07-24T07:55:16.640Z,47.20
2018-07-24T07:57:46.350Z,46.04
2018-07-24T08:00:16.332Z,47.47
2018-07-24T08:02:46.080Z,46.03
2018-07-24T08:05:15.953Z,46.71
2018-07-24T08:07:45.714Z,45.80
2018-07-24T08:10:15.808Z,46.01
2018-07-24T08:12:45.613Z,45.74
2018-07-24T08:15:15.110Z,45.20
2018-07-24T08:17:45.104Z,44.85
2018-07-24T08:20:14.973Z,43.99
2018-07-24T08:22:45.065Z,44.45
2018-07-24T08:25:14.474Z,43.67
2018-07-24T08:27:44.362Z,43.59
2018-07-24T08:30:14.356Z,42.29
2018-07-24T08:32:44.324Z,42.33
2018-07-24T08:35:14.086Z,42.22
2018-07-24T08:37:43.844Z,41.92
2018-07-24T08:40:13.858Z,41.76
2018-07-24T08:42:43.617Z,40.83
2018-07-24T08:45:13.599Z,41.33
2018-07-24T08:47:43.094Z,40.56
2018-07-24T08:50:13.118Z,40.32
2018-07-24T08:52:42.905Z,40.66
2018-07-24T08:55:12.905Z,40.85
2018-07-24T08:57:42.721Z,39.73
2018-07-24T09:00:12.546Z,39.77
2018-07-24T09:02:42.381Z,39.98
2018-07-24T09:05:12.062Z,38.75
2018-07-24T09:07:41.823Z,39.59
2018-07-24T09:10:11.252Z,39.80
2018-07-24T09:12:40.619Z,38.97
2018-07-24T09:15:10.370Z,38.10
2018-07-24T09:17:40.713Z,37.78
2018-07-24T09:20:10.461Z,38.64
2018-07-24T09:22:40.401Z,39.40
2018-07-24T09:25:10.582Z,38.44
2018-07-24T09:27:40.559Z,38.95
2018-07-24T09:30:10.479Z,38.33
2018-07-24T09:32:41.799Z,39.21
2018-07-24T09:35:11.636Z,38.47
2018-07-24T09:37:41.532Z,38.70
2018-07-24T09:40:11.706Z,37.99
2018-07-24T09:42:41.483Z,38.58
2018-07-24T09:45:11.409Z,38.30
2018-07-24T09:47:41.210Z,38.27
2018-07-24T09:50:11.146Z,37.36
2018-07-24T09:52:41.151Z,36.24
2018-07-24T09:55:11.205Z,37.89
2018-07-24T09:57:41.095Z,37.50
2018-07-24T10:00:11.006Z,37.58
2018-07-24T10:02:40.783Z,37.47
2018-07-24T10:05:10.837Z,37.32
2018-07-24T10:07:46.119Z,37.25
2018-07-24T10:10:18.553Z,36.92
2018-07-24T10:12:53.334Z,37.65
2018-07-24T10:15:23.877Z,37.55
2018-07-24T10:17:53.830Z,38.06
2018-07-24T10:20:24.724Z,38.89
2018-07-24T10:22:54.599Z,38.44
2018-07-24T10:25:25.108Z,37.15
2018-07-24T10:27:55.155Z,37.40
2018-07-24T10:30:25.131Z,37.25
2018-07-24T10:32:55.133Z,36.07
2018-07-24T10:35:25.024Z,36.13
2018-07-24T10:37:54.918Z,36.21
2018-07-24T10:40:24.816Z,35.37
2018-07-24T10:42:54.898Z,36.57
2018-07-24T10:45:24.853Z,36.36
2018-07-24T10:47:54.847Z,35.79
2018-07-24T10:50:24.901Z,35.86
2018-07-24T10:52:54.966Z,36.32
2018-07-24T10:55:24.799Z,36.06
2018-07-24T10:57:54.624Z,35.95
2018-07-24T11:00:24.536Z,35.52
2018-07-24T11:02:54.568Z,35.82
2018-07-24T11:05:24.665Z,36.20
2018-07-24T11:07:54.628Z,34.93
2018-07-24T11:10:24.990Z,34.30
2018-07-24T11:12:55.257Z,35.11
2018-07-24T11:15:25.332Z,35.29
2018-07-24T11:17:55.529Z,35.95
2018-07-24T11:20:25.480Z,35.26
2018-07-24T11:22:55.682Z,35.72
2018-07-24T11:25:25.776Z,34.28
2018-07-24T11:27:55.559Z,35.22
2018-07-24T11:30:25.711Z,35.09
2018-07-24T11:32:56.054Z,35.56
2018-07-24T11:35:26.088Z,34.24
2018-07-24T11:37:56.319Z,35.16
2018-07-24T11:40:26.617Z,34.91
2018-07-24T11:42:56.615Z,34.78
2018-07-24T11:45:26.656Z,35.29
2018-07-24T11:47:56.382Z,34.38
2018-07-24T11:50:26.230Z,34.34
2018-07-24T11:52:56.123Z,35.49
2018-07-24T11:55:29.353Z,35.16
2018-07-24T11:57:59.274Z,35.18
2018-07-24T12:00:29.193Z,34.06
2018-07-24T12:02:59.315Z,34.10
2018-07-24T12:05:29.275Z,34.24
2018-07-24T12:07:59.567Z,33.86
2018-07-24T12:10:29.598Z,34.46
2018-07-24T12:12:59.815Z,32.96
2018-07-24T12:15:29.244Z,34.10
2018-07-24T12:17:59.219Z,33.67
2018-07-24T12:20:29.122Z,33.11
2018-07-24T12:22:59.131Z,33.44
2018-07-24T12:25:28.965Z,33.17
2018-07-24T12:27:58.996Z,33.18
2018-07-24T12:30:29.200Z,34.09
2018-07-24T12:32:59.200Z,33.73
2018-07-24T12:35:29.210Z,34.25
2018-07-24T12:37:59.335Z,34.03
2018-07-24T12:40:29.536Z,34.34
2018-07-24T12:42:59.654Z,35.63
2018-07-24T12:45:29.696Z,33.40
2018-07-24T12:47:59.835Z,33.76
2018-07-24T12:50:29.974Z,32.83
2018-07-24T12:52:59.958Z,32.80
2018-07-24T12:55:29.838Z,33.09
2018-07-24T12:58:00.101Z,33.55
2018-07-24T13:00:30.128Z,33.91
2018-07-24T13:03:00.169Z,32.65
2018-07-24T13:05:30.200Z,32.10
2018-07-24T13:08:00.439Z,32.41
2018-07-24T13:10:30.514Z,32.25
2018-07-24T13:13:00.156Z,32.56
2018-07-24T13:15:29.682Z,32.23
2018-07-24T13:17:59.553Z,32.40
2018-07-24T13:20:29.921Z,32.86
2018-07-24T13:22:59.771Z,32.06
2018-07-24T13:25:29.883Z,31.73
2018-07-24T13:27:59.828Z,31.45
2018-07-24T13:30:30.099Z,32.50
2018-07-24T13:32:59.910Z,32.06
2018-07-24T13:35:30.746Z,32.09
2018-07-24T13:38:00.935Z,30.15
2018-07-24T13:40:30.654Z,29.33
2018-07-24T13:43:00.672Z,28.81
2018-07-24T13:45:30.696Z,28.81
2018-07-24T13:48:01.541Z,28.84
2018-07-24T13:50:31.633Z,28.27
2018-07-24T13:53:01.684Z,28.21
2018-07-24T13:55:31.658Z,27.19
2018-07-24T13:58:01.664Z,27.10
2018-07-24T14:00:31.535Z,26.85
2018-07-24T14:03:03.889Z,26.95
2018-07-24T14:05:37.932Z,26.56
2018-07-24T14:08:09.964Z,26.05
2018-07-24T14:10:39.959Z,26.27
2018-07-24T14:13:14.526Z,25.33
2018-07-24T14:15:44.611Z,25.71
2018-07-24T14:18:14.645Z,25.40
2018-07-24T14:20:44.399Z,25.02
2018-07-24T14:23:14.644Z,25.15
2018-07-24T14:25:44.702Z,24.52
2018-07-24T14:28:14.672Z,23.74
2018-07-24T14:30:44.795Z,24.37
2018-07-24T14:33:15.162Z,24.03
2018-07-24T14:35:45.359Z,23.25
2018-07-24T14:38:15.477Z,23.40
2018-07-24T14:40:46.632Z,22.85
2018-07-24T14:43:16.955Z,23.24
2018-07-24T14:45:47.531Z,23.05
2018-07-24T14:48:17.608Z,22.65
2018-07-24T14:53:24.410Z,24.01
2018-07-24T14:55:54.349Z,23.21
2018-07-24T14:58:24.375Z,24.13
2018-07-24T15:00:54.220Z,23.04
2018-07-24T15:03:24.249Z,22.73
2018-07-24T15:05:54.554Z,22.19
2018-07-24T15:08:24.642Z,22.44
2018-07-24T15:10:54.776Z,22.38
2018-07-24T15:13:27.688Z,22.44
2018-07-24T15:16:02.469Z,22.03
2018-07-24T15:18:33.978Z,22.56
2018-07-24T15:21:03.928Z,22.36
2018-07-24T15:23:33.436Z,22.68
2018-07-24T15:26:04.014Z,23.22
2018-07-24T15:28:33.888Z,23.83
2018-07-24T15:31:03.595Z,23.82
2018-07-24T15:33:33.119Z,24.46
2018-07-24T15:36:03.117Z,24.30
2018-07-24T15:38:33.113Z,24.82
2018-07-24T15:41:03.292Z,26.01
2018-07-24T15:43:33.298Z,27.04
2018-07-24T15:46:03.410Z,26.40
2018-07-24T15:48:33.236Z,26.74
2018-07-24T15:51:03.291Z,27.51
2018-07-24T15:53:33.155Z,27.72
2018-07-24T15:56:03.178Z,27.28
2018-07-24T15:58:33.225Z,27.79
2018-07-24T16:01:03.152Z,27.84
2018-07-24T16:03:33.023Z,28.87
2018-07-24T16:06:03.487Z,28.76
2018-07-24T16:08:35.909Z,28.27
2018-07-24T16:11:05.456Z,29.57
2018-07-24T16:13:35.402Z,29.21
2018-07-24T16:16:05.479Z,28.37
2018-07-24T16:18:35.527Z,28.78
2018-07-24T16:21:05.489Z,29.30
2018-07-24T16:23:35.501Z,29.21
2018-07-24T16:26:05.821Z,29.64
2018-07-24T16:28:35.984Z,29.21
2018-07-24T16:31:06.060Z,28.62
2018-07-24T16:33:36.144Z,29.30
2018-07-24T16:36:06.254Z,28.91
2018-07-24T16:38:36.321Z,29.42
2018-07-24T16:41:05.989Z,28.59
2018-07-24T16:43:36.187Z,29.59
2018-07-24T16:46:06.294Z,28.66
2018-07-24T16:48:36.183Z,29.16
2018-07-24T16:51:05.687Z,29.57
2018-07-24T16:53:35.767Z,29.12
2018-07-24T16:56:05.799Z,29.85
2018-07-24T16:58:35.783Z,29.07
2018-07-24T17:01:05.610Z,30.22
2018-07-24T17:03:35.626Z,29.07
2018-07-24T17:06:05.469Z,29.53
2018-07-24T17:08:35.263Z,29.84
2018-07-24T17:11:05.405Z,28.75
2018-07-24T17:13:35.334Z,28.25
2018-07-24T17:16:05.295Z,29.87
2018-07-24T17:18:35.611Z,30.15
2018-07-24T17:21:05.662Z,29.26
2018-07-24T17:23:35.779Z,30.26
2018-07-24T17:26:05.647Z,29.00
2018-07-24T17:28:35.113Z,29.44
2018-07-24T17:31:05.269Z,30.08
2018-07-24T17:33:35.288Z,29.82
2018-07-24T17:36:05.567Z,29.97
2018-07-24T17:38:35.901Z,29.73
2018-07-24T17:41:05.539Z,29.24
2018-07-24T17:43:35.286Z,29.82
2018-07-24T17:46:05.360Z,29.39
2018-07-24T17:48:35.353Z,29.64
2018-07-24T17:51:05.061Z,30.40
2018-07-24T17:53:35.042Z,30.24
2018-07-24T17:56:05.048Z,31.20
2018-07-24T17:58:35.232Z,31.61
2018-07-24T18:01:05.280Z,30.50
2018-07-24T18:03:35.593Z,31.58
2018-07-24T18:06:05.355Z,32.03
2018-07-24T18:08:35.241Z,32.13
2018-07-24T18:11:05.131Z,31.58
2018-07-24T18:13:34.607Z,32.77
2018-07-24T18:16:04.408Z,32.21
2018-07-24T18:18:34.596Z,31.89
2018-07-24T18:21:04.739Z,31.90
2018-07-24T18:23:34.596Z,32.91
2018-07-24T18:26:04.545Z,31.98
2018-07-24T18:28:34.484Z,32.70
2018-07-24T18:31:04.447Z,32.17
2018-07-24T18:33:34.314Z,32.97
2018-07-24T18:36:04.211Z,33.45
2018-07-24T18:38:34.153Z,33.76
2018-07-24T18:41:04.121Z,33.08
2018-07-24T18:43:34.309Z,33.11
2018-07-24T18:46:04.361Z,33.35
2018-07-24T18:48:34.101Z,33.10
2018-07-24T18:51:04.089Z,33.35
2018-07-24T18:53:33.628Z,33.48
2018-07-24T18:56:03.077Z,34.07
2018-07-24T18:58:33.291Z,32.89
2018-07-24T19:01:03.195Z,33.67
2018-07-24T19:03:33.185Z,33.40
2018-07-24T19:06:03.461Z,33.10
2018-07-24T19:08:33.013Z,32.48
2018-07-24T19:11:02.996Z,33.50
2018-07-24T19:13:33.339Z,33.43
2018-07-24T19:16:03.389Z,33.91
2018-07-24T19:18:33.564Z,33.42
2018-07-24T19:21:03.392Z,35.11
2018-07-24T19:23:33.594Z,34.29
2018-07-24T19:26:03.653Z,34.82
2018-07-24T19:28:33.607Z,34.48
2018-07-24T19:31:03.544Z,34.94
2018-07-24T19:33:33.331Z,34.74
2018-07-24T19:36:03.383Z,36.01
2018-07-24T19:38:33.393Z,34.98
2018-07-24T19:41:03.524Z,35.31
2018-07-24T19:43:33.408Z,36.22
2018-07-24T19:46:03.409Z,36.46
2018-07-24T19:48:33.358Z,36.92
2018-07-24T19:51:03.162Z,37.30
2018-07-24T19:53:33.144Z,38.00
2018-07-24T19:56:03.395Z,41.66
2018-07-24T19:58:33.314Z,40.77
2018-07-24T20:01:03.470Z,40.87
2018-07-24T20:03:33.689Z,41.84
2018-07-24T20:06:03.317Z,42.43
2018-07-24T20:08:33.378Z,40.36
2018-07-24T20:11:03.433Z,41.90
2018-07-24T20:13:33.363Z,41.99
2018-07-24T20:16:03.253Z,42.25
2018-07-24T20:18:33.128Z,42.94
2018-07-24T20:21:03.081Z,42.07
2018-07-24T20:23:33.447Z,41.11
2018-07-24T20:26:03.521Z,41.82
2018-07-24T20:28:33.846Z,40.83
2018-07-24T20:31:04.115Z,42.30
2018-07-24T20:33:34.083Z,42.38
2018-07-24T20:36:04.055Z,42.81
2018-07-24T20:38:33.975Z,43.06
2018-07-24T20:41:03.884Z,41.61
2018-07-24T20:43:34.082Z,42.45
2018-07-24T20:46:04.425Z,42.62
2018-07-24T20:48:34.256Z,43.22
2018-07-24T20:51:04.544Z,43.16
2018-07-24T20:53:33.991Z,44.58
2018-07-24T20:56:04.004Z,43.37
2018-07-24T20:58:34.121Z,44.21
2018-07-24T21:01:04.390Z,44.29
2018-07-24T21:03:34.124Z,44.44
2018-07-24T21:06:03.897Z,44.28
2018-07-24T21:08:33.785Z,42.16
2018-07-24T21:11:03.843Z,42.27
2018-07-24T21:13:33.777Z,42.21
2018-07-24T21:16:03.792Z,43.63
2018-07-24T21:18:33.250Z,43.61
2018-07-24T21:21:03.199Z,45.31
2018-07-24T21:23:33.110Z,45.00
2018-07-24T21:26:03.215Z,45.63
2018-07-24T21:28:33.122Z,46.54
2018-07-24T21:31:03.241Z,46.68
2018-07-24T21:33:33.516Z,47.84
2018-07-24T21:36:03.047Z,48.46
2018-07-24T21:38:33.190Z,48.83
2018-07-24T21:41:03.129Z,49.08
2018-07-24T21:43:33.257Z,49.18
2018-07-24T21:46:03.159Z,50.44
2018-07-24T21:48:32.984Z,49.82
2018-07-24T21:51:03.229Z,49.77
2018-07-24T21:53:32.714Z,51.17
2018-07-24T21:56:02.864Z,51.29
2018-07-24T21:58:33.028Z,51.84
2018-07-24T22:01:08.177Z,51.61
2018-07-24T22:03:38.131Z,52.38
2018-07-24T22:06:08.628Z,52.69
2018-07-24T22:08:39.332Z,52.03
2018-07-24T22:11:09.556Z,51.91
2018-07-24T22:13:39.489Z,52.26
2018-07-24T22:16:09.644Z,53.04
2018-07-24T22:18:39.263Z,52.69
2018-07-24T22:21:10.086Z,52.68
2018-07-24T22:23:40.096Z,52.52
2018-07-24T22:26:09.949Z,53.92
2018-07-24T22:28:40.226Z,52.63
2018-07-24T22:31:10.288Z,53.56
2018-07-24T22:33:40.254Z,53.11
2018-07-24T22:36:10.139Z,53.95
2018-07-24T22:38:40.192Z,53.34
2018-07-24T22:41:10.086Z,54.27
2018-07-24T22:43:40.140Z,54.47
2018-07-24T22:46:09.615Z,54.75
2018-07-24T22:48:39.646Z,53.96
2018-07-24T22:51:09.936Z,54.81
2018-07-24T22:53:39.991Z,54.59
2018-07-24T22:56:10.143Z,54.31
2018-07-24T22:58:39.852Z,54.12
2018-07-24T23:01:09.389Z,53.91
2018-07-24T23:03:39.470Z,54.38
2018-07-24T23:06:09.970Z,54.61
2018-07-24T23:08:40.295Z,55.65
2018-07-24T23:11:10.324Z,55.48
2018-07-24T23:13:40.634Z,56.30
2018-07-24T23:16:10.424Z,55.40
2018-07-24T23:18:40.808Z,55.56
2018-07-24T23:21:10.400Z,56.42
2018-07-24T23:23:40.748Z,56.74
2018-07-24T23:26:10.226Z,57.10
2018-07-24T23:28:40.449Z,56.76
2018-07-24T23:31:10.525Z,56.88
2018-07-24T23:33:40.974Z,56.79
2018-07-24T23:36:10.763Z,56.94
2018-07-24T23:38:41.356Z,56.73
2018-07-24T23:41:10.977Z,57.35
2018-07-24T23:43:40.880Z,56.54
2018-07-24T23:46:10.778Z,57.69
2018-07-24T23:48:40.763Z,56.72
2018-07-24T23:51:10.659Z,56.80
2018-07-24T23:53:40.592Z,56.86
2018-07-24T23:56:10.565Z,57.81
2018-07-24T23:58:40.500Z,58.18
